Time;durP1;ratioP1;P1;durP2;ratioP2;P2;SDS_P1;SDS_P2;PMS_P1;PMS_P2;Temp;Humidity;BMP_temperature;BMP_pressure;BME280_temperature;BME280_humidity;BME280_pressure;Samples;Min_cycle;Max_cycle;Signal;HPM_P1;HPM_P2
2022/08/25 00:01:58;;;;;;;4.80;2.60;;;25.90;59.00;;;;;;4990293;28;20109;-72
2022/08/25 00:04:24;;;;;;;4.40;2.63;;;25.90;58.80;;;;;;4985094;28;20760;-71
2022/08/25 00:06:52;;;;;;;3.50;2.10;;;25.90;58.60;;;;;;4971161;28;20143;-71
2022/08/25 00:09:21;;;;;;;6.63;2.60;;;25.90;58.40;;;;;;4977050;28;20042;-72
2022/08/25 00:11:48;;;;;;;5.47;1.95;;;25.90;58.20;;;;;;4990032;28;20847;-71
2022/08/25 00:14:23;;;;;;;6.40;2.40;;;25.90;58.10;;;;;;4977454;28;20403;-72
2022/08/25 00:16:49;;;;;;;7.47;2.80;;;25.90;58.10;;;;;;4989561;28;20022;-71
2022/08/25 00:19:20;;;;;;;7.22;2.55;;;25.80;58.00;;;;;;4977839;28;20029;-72
2022/08/25 00:21:46;;;;;;;5.45;2.13;;;25.80;58.00;;;;;;4990367;28;20817;-72
2022/08/25 00:24:15;;;;;;;6.45;2.67;;;25.80;58.10;;;;;;4980212;28;20014;-73
2022/08/25 00:26:44;;;;;;;6.85;2.42;;;25.80;58.10;;;;;;4987774;28;20037;-72
2022/08/25 00:29:10;;;;;;;7.72;2.53;;;25.70;58.10;;;;;;4981089;28;20481;-72
2022/08/25 00:31:36;;;;;;;4.18;2.35;;;25.70;57.90;;;;;;4976093;28;20029;-73
2022/08/25 00:34:01;;;;;;;6.72;2.78;;;25.70;57.80;;;;;;4974237;28;20037;-72
2022/08/25 00:36:27;;;;;;;5.05;2.58;;;25.70;57.80;;;;;;4971552;28;20031;-72
2022/08/25 00:38:53;;;;;;;7.25;2.88;;;25.60;57.70;;;;;;4974231;28;20030;-72
2022/08/25 00:41:22;;;;;;;5.28;2.75;;;25.60;57.70;;;;;;4980440;28;20532;-72
2022/08/25 00:43:55;;;;;;;4.63;2.33;;;25.60;57.80;;;;;;4970502;28;20073;-71
2022/08/25 00:46:25;;;;;;;6.07;2.47;;;25.60;57.90;;;;;;4989362;28;20030;-72
2022/08/25 00:48:56;;;;;;;6.40;2.80;;;25.60;57.50;;;;;;4987854;28;20500;-72
2022/08/25 00:51:34;;;;;;;5.72;2.38;;;25.60;57.60;;;;;;4972225;28;20053;-72
2022/08/25 00:54:00;;;;;;;6.88;2.55;;;25.60;57.70;;;;;;4975209;28;20033;-72
2022/08/25 00:56:28;;;;;;;6.47;2.70;;;25.60;57.70;;;;;;4967039;28;20027;-72
2022/08/25 00:58:54;;;;;;;6.68;2.80;;;25.60;57.60;;;;;;4974351;28;20019;-72
2022/08/25 01:01:21;;;;;;;7.60;3.15;;;25.50;57.60;;;;;;4982297;28;20428;-72
2022/08/25 01:03:47;;;;;;;7.30;2.17;;;25.50;57.60;;;;;;4993120;28;20026;-72
2022/08/25 01:06:13;;;;;;;4.95;2.58;;;25.50;57.70;;;;;;4981041;28;20049;-72
2022/08/25 01:08:38;;;;;;;9.32;3.35;;;25.50;57.80;;;;;;4992955;28;20058;-71
2022/08/25 01:11:06;;;;;;;10.60;3.80;;;25.40;57.70;;;;;;4988366;28;20037;-72
2022/08/25 01:13:37;;;;;;;5.63;2.65;;;25.40;57.70;;;;;;4973659;28;20056;-72
2022/08/25 01:16:03;;;;;;;5.78;2.60;;;25.40;57.70;;;;;;4966473;28;20031;-72
2022/08/25 01:18:45;;;;;;;5.63;3.30;;;25.30;57.80;;;;;;4974722;28;20034;-72
2022/08/25 01:21:12;;;;;;;7.47;3.10;;;25.30;57.90;;;;;;4984270;28;20068;-71
2022/08/25 01:23:37;;;;;;;5.97;3.00;;;25.30;57.80;;;;;;4974800;28;20138;-72
2022/08/25 01:26:06;;;;;;;5.35;3.00;;;25.30;57.80;;;;;;4981627;28;20101;-71
2022/08/25 01:28:32;;;;;;;5.85;2.78;;;25.30;57.60;;;;;;4977053;28;20426;-71
2022/08/25 01:30:58;;;;;;;5.57;2.70;;;25.20;57.70;;;;;;4975943;28;20063;-71
2022/08/25 01:33:25;;;;;;;6.13;2.78;;;25.20;57.60;;;;;;4973995;28;20109;-73
2022/08/25 01:35:50;;;;;;;7.57;2.92;;;25.20;57.50;;;;;;4980207;28;20027;-71
2022/08/25 01:38:17;;;;;;;8.23;2.90;;;25.10;57.40;;;;;;4984260;28;20045;-72
2022/08/25 01:40:43;;;;;;;6.15;3.00;;;25.10;57.40;;;;;;4973260;28;20026;-72
2022/08/25 01:43:14;;;;;;;6.72;2.67;;;25.10;57.30;;;;;;4982113;28;20157;-71
2022/08/25 01:45:44;;;;;;;5.85;2.78;;;25.10;57.30;;;;;;4990768;28;20019;-72
2022/08/25 01:48:11;;;;;;;;;;;25.00;57.20;;;;;;4981523;28;20042;-72
2022/08/25 01:50:37;;;;;;;5.28;2.60;;;25.00;57.30;;;;;;4992099;28;20292;-72
2022/08/25 01:53:17;;;;;;;7.40;3.00;;;25.00;57.30;;;;;;4988621;28;20023;-72
2022/08/25 01:55:54;;;;;;;5.25;2.42;;;25.00;57.50;;;;;;4991318;28;20492;-72
2022/08/25 01:58:26;;;;;;;7.63;3.13;;;24.90;57.20;;;;;;4983357;28;20846;-72
2022/08/25 02:00:55;;;;;;;5.55;2.50;;;24.90;57.20;;;;;;4973290;28;20023;-73
2022/08/25 02:03:23;;;;;;;10.00;3.00;;;24.90;57.00;;;;;;4983146;28;20026;-72
2022/08/25 02:05:49;;;;;;;5.22;2.40;;;24.90;57.30;;;;;;4972759;28;20015;-72
2022/08/25 02:08:16;;;;;;;5.85;2.78;;;24.90;56.90;;;;;;4979870;28;20069;-73
2022/08/25 02:10:42;;;;;;;6.22;2.97;;;24.90;56.80;;;;;;4991896;28;20710;-73
2022/08/25 02:13:09;;;;;;;5.47;2.88;;;24.90;57.00;;;;;;4987204;28;20473;-72
2022/08/25 02:15:40;;;;;;;6.53;2.60;;;24.90;56.70;;;;;;4973011;28;20390;-72
2022/08/25 02:18:05;;;;;;;5.90;2.78;;;25.00;57.10;;;;;;4975704;28;20484;-72
2022/08/25 02:20:31;;;;;;;8.07;2.67;;;25.00;56.80;;;;;;4990074;28;20377;-72
2022/08/25 02:22:56;;;;;;;7.25;3.08;;;25.00;56.10;;;;;;4983295;28;20102;-72
2022/08/25 02:25:22;;;;;;;8.48;3.10;;;25.00;56.00;;;;;;4987327;28;20027;-71
2022/08/25 02:27:48;;;;;;;5.70;2.67;;;25.00;56.10;;;;;;4985696;28;20122;-71
2022/08/25 02:30:14;;;;;;;7.10;2.88;;;25.00;56.00;;;;;;4985087;28;20030;-72
2022/08/25 02:32:40;;;;;;;5.80;2.95;;;25.00;56.40;;;;;;4976428;28;20520;-72
2022/08/25 02:35:07;;;;;;;6.60;3.08;;;25.10;55.50;;;;;;4981797;28;20059;-73
2022/08/25 02:37:33;;;;;;;4.45;2.10;;;25.10;56.00;;;;;;4987821;28;20436;-71
2022/08/25 02:39:59;;;;;;;7.82;2.88;;;25.10;56.60;;;;;;4982419;28;20031;-72
2022/08/25 02:42:26;;;;;;;5.13;2.35;;;25.10;55.30;;;;;;4973199;28;20027;-72
2022/08/25 02:44:52;;;;;;;5.25;2.60;;;25.10;55.10;;;;;;4982590;28;20497;-73
2022/08/25 02:47:18;;;;;;;5.70;2.45;;;25.10;54.90;;;;;;4971703;28;20054;-72
2022/08/25 02:49:43;;;;;;;7.97;2.50;;;25.20;55.90;;;;;;4978641;28;20014;-72
2022/08/25 02:52:10;;;;;;;3.88;2.13;;;25.10;54.30;;;;;;4991413;28;20030;-72
2022/08/25 02:54:36;;;;;;;6.47;2.63;;;25.10;54.20;;;;;;4988702;28;20149;-72
2022/08/25 02:57:02;;;;;;;6.00;2.50;;;25.20;54.30;;;;;;4971591;28;20110;-71
2022/08/25 02:59:28;;;;;;;5.38;2.30;;;25.10;54.40;;;;;;4982351;28;20027;-72
2022/08/25 03:01:53;;;;;;;7.65;3.05;;;25.10;54.40;;;;;;4955075;28;20025;-72
2022/08/25 03:04:19;;;;;;;5.15;2.72;;;25.10;54.10;;;;;;4979821;28;20022;-72
2022/08/25 03:06:45;;;;;;;5.75;3.15;;;25.10;54.40;;;;;;4975533;28;20019;-73
2022/08/25 03:09:12;;;;;;;6.03;2.85;;;25.10;54.00;;;;;;4977238;28;20046;-73
2022/08/25 03:11:37;;;;;;;5.30;2.08;;;25.10;54.00;;;;;;4977857;28;20027;-72
2022/08/25 03:14:08;;;;;;;7.13;3.05;;;25.10;54.70;;;;;;4976930;28;20036;-73
2022/08/25 03:16:34;;;;;;;5.90;2.83;;;25.10;54.20;;;;;;4979559;28;20485;-73
2022/08/25 03:19:00;;;;;;;5.18;2.72;;;25.00;53.90;;;;;;4975376;28;20048;-72
2022/08/25 03:21:28;;;;;;;6.45;2.97;;;25.00;54.20;;;;;;4979942;28;20026;-72
2022/08/25 03:23:55;;;;;;;4.47;2.53;;;25.00;54.40;;;;;;4989107;28;20031;-73
2022/08/25 03:29:09;;;;;;;4.93;2.28;;;24.90;55.00;;;;;;4989369;28;20057;-72
2022/08/25 03:31:35;;;;;;;5.07;2.63;;;24.90;55.10;;;;;;4980957;28;20038;-71
2022/08/25 03:34:01;;;;;;;5.45;2.40;;;24.80;55.10;;;;;;4988718;28;20046;-71
2022/08/25 03:36:30;;;;;;;7.18;2.42;;;24.80;55.00;;;;;;4986546;28;20030;-71
2022/08/25 03:38:56;;;;;;;5.88;2.63;;;24.80;55.20;;;;;;4990589;28;20026;-71
2022/08/25 03:41:27;;;;;;;6.90;2.85;;;24.70;55.10;;;;;;4986171;28;20022;-72
2022/08/25 03:43:54;;;;;;;7.63;3.35;;;24.70;55.20;;;;;;4990970;28;20042;-73
2022/08/25 03:46:23;;;;;;;6.40;3.17;;;24.70;55.70;;;;;;4989359;28;20088;-73
2022/08/25 03:48:49;;;;;;;7.35;2.88;;;24.60;55.30;;;;;;4990145;28;20046;-72
2022/08/25 03:51:41;;;;;;;8.80;3.50;;;24.60;55.60;;;;;;4978567;28;20101;-72
2022/08/25 03:54:09;;;;;;;10.63;3.88;;;24.50;55.60;;;;;;4985119;28;20049;-72
2022/08/25 03:56:35;;;;;;;5.53;3.10;;;24.50;55.50;;;;;;4985609;28;20545;-72
2022/08/25 03:59:02;;;;;;;9.43;3.50;;;24.50;56.10;;;;;;4970387;28;20058;-72
2022/08/25 04:01:28;;;;;;;4.28;2.75;;;24.50;56.10;;;;;;4980247;28;20554;-72
2022/08/25 04:03:54;;;;;;;4.60;2.58;;;24.50;56.40;;;;;;4972794;28;20027;-72
2022/08/25 04:06:20;;;;;;;7.05;3.42;;;24.40;56.10;;;;;;4978276;28;20034;-73
2022/08/25 04:08:46;;;;;;;4.93;3.00;;;24.30;56.10;;;;;;4974766;28;20027;-72
2022/08/25 04:11:15;;;;;;;7.32;3.55;;;24.40;56.40;;;;;;4958648;28;20703;-72
2022/08/25 04:13:41;;;;;;;6.28;3.30;;;24.30;56.50;;;;;;4976838;28;20050;-71
2022/08/25 04:16:12;;;;;;;6.25;3.30;;;24.30;56.50;;;;;;4973362;28;20799;-72
2022/08/25 04:18:39;;;;;;;6.95;3.50;;;24.20;56.50;;;;;;4978248;28;20038;-73
2022/08/25 04:21:07;;;;;;;5.55;3.40;;;24.20;56.80;;;;;;4973534;28;20097;-72
2022/08/25 04:23:34;;;;;;;6.50;3.47;;;24.20;56.80;;;;;;4962432;28;20030;-73
2022/08/25 04:26:00;;;;;;;8.40;3.88;;;24.20;56.80;;;;;;4970096;28;20033;-73
2022/08/25 04:28:26;;;;;;;6.25;3.35;;;24.10;56.80;;;;;;4978368;28;20039;-73
2022/08/25 04:30:51;;;;;;;7.43;3.58;;;24.00;56.90;;;;;;4988056;28;20019;-73
2022/08/25 04:33:17;;;;;;;9.07;3.95;;;24.00;57.20;;;;;;4977926;28;20053;-73
2022/08/25 04:35:47;;;;;;;7.63;3.47;;;24.00;57.30;;;;;;4983386;28;20093;-73
2022/08/25 04:38:12;;;;;;;;;;;24.00;57.50;;;;;;4976858;28;20019;-71
2022/08/25 04:40:38;;;;;;;6.68;3.85;;;24.00;57.50;;;;;;4989540;28;19913;-71
2022/08/25 04:43:03;;;;;;;7.88;3.97;;;23.90;57.30;;;;;;4977050;28;20023;-72
2022/08/25 04:45:29;;;;;;;9.70;3.78;;;23.90;57.60;;;;;;4989411;28;20027;-73
2022/08/25 04:47:59;;;;;;;5.32;3.40;;;23.80;57.60;;;;;;4979664;28;20521;-72
2022/08/25 04:50:25;;;;;;;;;;;23.80;57.70;;;;;;4987710;28;20045;-72
2022/08/25 04:52:51;;;;;;;9.95;3.47;;;23.80;57.60;;;;;;4981930;28;20349;-72
2022/08/25 04:55:17;;;;;;;6.63;3.17;;;23.80;57.80;;;;;;4985101;28;20069;-72
2022/08/25 04:57:42;;;;;;;8.52;3.88;;;23.80;57.80;;;;;;4983732;28;20019;-73
2022/08/25 05:00:09;;;;;;;8.18;3.63;;;23.70;57.90;;;;;;4982255;28;20027;-73
2022/08/25 05:02:34;;;;;;;8.55;4.18;;;23.70;58.00;;;;;;4986996;28;20061;-72
2022/08/25 05:05:02;;;;;;;8.20;3.63;;;23.70;58.10;;;;;;4979395;28;20090;-71
2022/08/25 05:07:29;;;;;;;4.82;3.13;;;23.70;58.20;;;;;;4987912;28;20058;-72
2022/08/25 05:09:55;;;;;;;8.15;3.90;;;23.70;58.20;;;;;;4978289;28;20104;-71
2022/08/25 05:12:21;;;;;;;6.70;3.22;;;23.60;58.20;;;;;;4988475;28;20081;-72
2022/08/25 05:14:50;;;;;;;9.27;4.90;;;23.60;58.40;;;;;;4963029;28;20191;-72
2022/08/25 05:17:16;;;;;;;9.38;3.95;;;23.60;58.40;;;;;;4970566;28;20049;-72
2022/08/25 05:19:41;;;;;;;7.68;3.70;;;23.60;58.50;;;;;;4976135;28;20023;-72
2022/08/25 05:22:07;;;;;;;8.57;4.28;;;23.60;58.30;;;;;;4971624;28;20068;-71
2022/08/25 05:24:33;;;;;;;8.13;4.28;;;23.60;58.40;;;;;;4976512;28;20027;-72
2022/08/25 05:26:58;;;;;;;8.65;3.78;;;23.70;58.50;;;;;;4969429;28;20066;-73
2022/08/25 05:29:24;;;;;;;9.70;4.40;;;23.70;58.60;;;;;;4980341;28;20023;-72
2022/08/25 05:31:50;;;;;;;6.10;3.30;;;23.70;58.70;;;;;;4982007;28;20031;-73
2022/08/25 05:34:17;;;;;;;7.88;4.20;;;23.70;58.40;;;;;;4982576;28;20026;-72
2022/08/25 05:36:43;;;;;;;9.13;3.70;;;23.70;59.00;;;;;;4984850;28;20025;-72
2022/08/25 05:39:09;;;;;;;9.00;4.35;;;23.70;58.40;;;;;;4969829;28;20018;-71
2022/08/25 05:41:35;;;;;;;6.60;3.13;;;23.70;58.20;;;;;;4979843;28;20031;-72
2022/08/25 05:44:01;;;;;;;5.75;2.75;;;23.80;58.60;;;;;;4958315;28;20122;-72
2022/08/25 05:46:27;;;;;;;7.03;3.78;;;23.80;58.80;;;;;;4982193;28;20153;-72
2022/08/25 05:48:53;;;;;;;6.00;2.55;;;23.80;58.50;;;;;;4974107;28;20118;-70
2022/08/25 05:51:19;;;;;;;5.00;2.70;;;23.90;58.50;;;;;;4990971;28;20018;-71
2022/08/25 05:53:47;;;;;;;3.92;2.05;;;24.10;58.20;;;;;;4990837;28;20026;-71
2022/08/25 05:56:13;;;;;;;5.63;2.35;;;24.20;57.80;;;;;;4981335;28;20380;-72
2022/08/25 05:58:40;;;;;;;4.90;2.33;;;24.40;57.40;;;;;;4985066;28;20027;-71
2022/08/25 06:03:53;;;;;;;6.45;2.47;;;24.60;56.90;;;;;;4992180;28;20096;-70
2022/08/25 06:06:20;;;;;;;4.22;2.22;;;24.80;56.50;;;;;;4966899;28;20030;-70
2022/08/25 06:08:46;;;;;;;5.60;2.67;;;24.90;56.30;;;;;;4972224;28;20039;-70
2022/08/25 06:11:12;;;;;;;5.07;2.67;;;25.00;56.00;;;;;;4976508;28;20076;-70
2022/08/25 06:13:39;;;;;;;7.22;2.60;;;25.10;55.70;;;;;;4971919;28;20440;-70
2022/08/25 06:16:05;;;;;;;4.38;2.25;;;25.20;55.50;;;;;;4982153;28;20019;-71
2022/08/25 06:18:31;;;;;;;7.68;3.25;;;25.20;55.30;;;;;;4972887;28;20113;-70
2022/08/25 06:20:56;;;;;;;9.05;2.80;;;25.30;55.20;;;;;;4986483;28;20098;-70
2022/08/25 06:23:22;;;;;;;3.35;1.95;;;25.40;55.30;;;;;;4975438;28;20026;-70
2022/08/25 06:25:52;;;;;;;4.05;1.98;;;25.50;55.00;;;;;;4977320;28;20023;-70
2022/08/25 06:28:19;;;;;;;3.50;2.00;;;25.60;54.80;;;;;;4977078;28;20050;-70
2022/08/25 06:30:46;;;;;;;5.47;2.90;;;25.70;54.70;;;;;;4979468;28;20022;-70
2022/08/25 06:33:13;;;;;;;5.63;1.80;;;25.80;54.50;;;;;;4969006;28;20019;-70
2022/08/25 06:35:42;;;;;;;5.30;2.17;;;25.90;54.40;;;;;;4987701;28;20022;-70
2022/08/25 06:38:09;;;;;;;4.78;2.13;;;25.90;54.10;;;;;;4985246;28;20370;-71
2022/08/25 06:40:34;;;;;;;8.40;2.83;;;26.00;53.80;;;;;;4950704;28;20033;-71
2022/08/25 06:43:00;;;;;;;4.25;2.38;;;25.90;53.90;;;;;;4983011;28;20019;-71
2022/08/25 06:45:26;;;;;;;6.85;2.53;;;25.90;53.60;;;;;;4972194;28;20030;-71
2022/08/25 06:47:53;;;;;;;6.80;2.55;;;25.90;53.60;;;;;;4974243;28;20426;-71
2022/08/25 06:50:19;;;;;;;7.97;3.30;;;26.00;53.30;;;;;;4986897;28;20076;-71
2022/08/25 06:52:44;;;;;;;5.90;2.30;;;26.10;53.00;;;;;;4978629;28;20117;-71
2022/08/25 06:55:10;;;;;;;5.07;2.55;;;26.10;53.20;;;;;;4990529;28;20022;-71
2022/08/25 06:57:36;;;;;;;5.75;2.42;;;26.20;52.90;;;;;;4985213;28;20026;-71
2022/08/25 07:00:06;;;;;;;7.10;3.03;;;26.20;52.70;;;;;;4971659;28;20496;-71
2022/08/25 07:02:32;;;;;;;6.05;3.03;;;26.20;52.00;;;;;;4976684;28;20019;-70
2022/08/25 07:04:58;;;;;;;6.57;2.33;;;26.20;52.40;;;;;;4989249;28;20551;-70
2022/08/25 07:07:23;;;;;;;5.70;2.75;;;26.40;52.70;;;;;;4982214;28;20034;-70
2022/08/25 07:09:49;;;;;;;6.20;2.92;;;26.50;53.00;;;;;;4986140;28;20026;-71
2022/08/25 07:12:14;;;;;;;7.10;2.78;;;26.60;52.20;;;;;;4984952;28;20098;-70
2022/08/25 07:14:40;;;;;;;5.95;2.72;;;26.70;52.10;;;;;;4983656;28;20181;-71
2022/08/25 07:17:05;;;;;;;6.68;2.92;;;26.70;51.70;;;;;;4987443;28;20460;-70
2022/08/25 07:19:31;;;;;;;5.22;2.28;;;26.80;51.40;;;;;;4981139;28;20511;-73
2022/08/25 07:21:57;;;;;;;7.13;2.92;;;26.90;51.70;;;;;;4987381;28;20378;-72
2022/08/25 07:24:24;;;;;;;6.50;3.00;;;27.00;51.70;;;;;;4970453;28;20022;-72
2022/08/25 07:26:50;;;;;;;6.80;2.95;;;27.10;51.40;;;;;;4970228;28;20019;-72
2022/08/25 07:29:20;;;;;;;6.80;3.13;;;27.20;51.00;;;;;;4979925;28;20030;-72
2022/08/25 07:31:46;;;;;;;;;;;27.30;51.30;;;;;;4977105;28;20027;-73
2022/08/25 07:36:56;;;;;;;9.00;3.17;;;27.40;50.40;;;;;;4975036;28;20050;-73
2022/08/25 07:39:23;;;;;;;5.43;2.20;;;27.40;50.20;;;;;;4961449;28;20378;-74
2022/08/25 07:41:49;;;;;;;9.30;2.97;;;27.50;50.50;;;;;;4978241;28;20520;-73
2022/08/25 07:44:14;;;;;;;6.65;2.67;;;27.60;50.30;;;;;;4976417;28;20150;-74
2022/08/25 07:46:40;;;;;;;4.03;2.38;;;27.80;50.50;;;;;;4978835;28;20536;-73
2022/08/25 07:49:06;;;;;;;5.93;2.58;;;27.90;50.50;;;;;;4977338;28;20026;-73
2022/08/25 07:51:32;;;;;;;5.25;2.60;;;28.00;50.00;;;;;;4979825;28;20027;-73
2022/08/25 07:53:58;;;;;;;8.25;2.65;;;28.20;49.70;;;;;;4978319;28;20457;-73
2022/08/25 07:56:23;;;;;;;4.97;2.05;;;28.10;49.50;;;;;;4979452;28;20034;-73
2022/08/25 07:58:49;;;;;;;8.23;3.30;;;28.20;50.50;;;;;;4976421;28;20752;-73
2022/08/25 08:01:17;;;;;;;7.20;2.95;;;28.30;49.60;;;;;;4977523;28;20023;-72
2022/08/25 08:03:43;;;;;;;5.65;2.70;;;28.30;49.20;;;;;;4975601;28;20035;-73
2022/08/25 08:06:11;;;;;;;6.47;2.40;;;28.30;50.40;;;;;;4972645;28;20677;-73
2022/08/25 08:08:38;;;;;;;3.90;1.85;;;28.50;50.40;;;;;;4972668;28;20034;-73
2022/08/25 08:11:04;;;;;;;3.42;2.30;;;28.70;50.10;;;;;;4972646;28;20114;-73
2022/08/25 08:13:31;;;;;;;4.30;2.10;;;28.90;50.10;;;;;;4975364;28;20030;-73
2022/08/25 08:15:57;;;;;;;6.15;2.50;;;29.00;50.10;;;;;;4975620;28;20025;-73
2022/08/25 08:18:23;;;;;;;5.18;2.75;;;29.20;50.00;;;;;;4970595;28;20035;-74
2022/08/25 08:20:48;;;;;;;6.47;2.42;;;29.30;50.30;;;;;;4976514;28;20026;-73
2022/08/25 08:23:15;;;;;;;4.75;2.30;;;29.30;50.50;;;;;;4976713;28;20026;-73
2022/08/25 08:25:41;;;;;;;4.13;2.38;;;29.40;50.60;;;;;;4980912;28;20100;-73
2022/08/25 08:28:08;;;;;;;6.40;2.30;;;29.40;50.50;;;;;;4969517;28;20504;-73
2022/08/25 08:30:35;;;;;;;7.55;2.30;;;29.50;50.20;;;;;;4971084;28;20019;-73
2022/08/25 08:33:01;;;;;;;5.20;2.00;;;29.70;49.80;;;;;;4971360;28;20133;-73
2022/08/25 08:35:26;;;;;;;4.80;2.00;;;29.80;49.80;;;;;;4974369;28;20844;-73
2022/08/25 08:37:52;;;;;;;7.35;2.97;;;29.90;49.80;;;;;;4974103;28;23067;-72
2022/08/25 08:40:19;;;;;;;4.95;2.70;;;30.00;48.30;;;;;;4972048;28;20038;-73
2022/08/25 08:43:14;;;;;;;6.78;2.75;;;30.00;49.10;;;;;;4973242;28;20022;-72
2022/08/25 08:45:48;;;;;;;7.78;3.10;;;30.00;51.30;;;;;;4975357;28;20031;-72
2022/08/25 08:48:38;;;;;;;7.72;2.88;;;29.90;47.00;;;;;;4975797;28;20122;-72
2022/08/25 08:51:10;;;;;;;7.47;2.42;;;29.90;48.00;;;;;;4974420;28;20485;-72
2022/08/25 08:53:47;;;;;;;6.03;3.00;;;30.00;48.40;;;;;;4973183;28;20383;-73
2022/08/25 08:56:40;;;;;;;6.93;2.78;;;30.20;48.40;;;;;;4975440;28;20394;-73
2022/08/25 08:59:29;;;;;;;7.70;2.92;;;30.10;49.10;;;;;;4963546;28;20042;-71
2022/08/25 09:01:59;;;;;;;7.07;3.10;;;30.30;49.60;;;;;;4971619;28;20025;-73
2022/08/25 09:04:47;;;;;;;6.18;2.67;;;30.40;48.80;;;;;;4975455;28;20070;-73
2022/08/25 09:07:22;;;;;;;4.30;2.60;;;30.50;49.20;;;;;;4975889;28;20066;-72
2022/08/25 09:09:49;;;;;;;8.18;2.85;;;30.70;50.40;;;;;;4975566;28;20669;-73
2022/08/25 09:12:34;;;;;;;5.65;2.30;;;30.90;50.00;;;;;;4975482;28;21379;-73
2022/08/25 09:15:02;;;;;;;6.97;2.60;;;31.10;50.20;;;;;;4976930;28;20031;-73
2022/08/25 09:18:13;;;;;;;6.18;2.20;;;31.20;50.70;;;;;;4979256;28;20113;-73
2022/08/25 09:21:01;;;;;;;5.65;2.38;;;31.30;49.30;;;;;;4953714;28;20046;-73
2022/08/25 09:23:48;;;;;;;9.00;3.05;;;31.50;50.00;;;;;;4979011;28;20393;-73
2022/08/25 09:26:33;;;;;;;12.88;3.53;;;31.60;46.60;;;;;;4964951;28;20143;-73
2022/08/25 09:29:05;;;;;;;9.38;3.28;;;31.60;45.10;;;;;;4975276;28;20038;-74
2022/08/25 09:31:35;;;;;;;9.40;3.75;;;31.40;43.40;;;;;;4978636;28;20031;-74
2022/08/25 09:34:06;;;;;;;5.93;2.28;;;31.40;44.10;;;;;;4979171;28;20029;-74
2022/08/25 09:36:34;;;;;;;8.68;3.50;;;31.60;49.20;;;;;;4976919;28;20038;-74
2022/08/25 09:39:00;;;;;;;6.88;2.65;;;31.90;47.00;;;;;;4980640;28;20027;-74
2022/08/25 09:41:42;;;;;;;6.32;2.95;;;32.10;45.80;;;;;;4974776;28;20041;-74
2022/08/25 09:44:24;;;;;;;4.72;2.55;;;32.30;44.80;;;;;;4973805;28;20452;-74
2022/08/25 09:47:00;;;;;;;8.68;2.72;;;32.50;46.20;;;;;;4975899;28;20049;-73
2022/08/25 09:49:48;;;;;;;6.07;2.47;;;32.60;42.10;;;;;;4975301;28;20030;-73
2022/08/25 09:52:31;;;;;;;4.80;1.80;;;32.80;44.20;;;;;;4980279;28;20023;-73
2022/08/25 09:55:17;;;;;;;9.13;2.70;;;32.90;48.50;;;;;;4976358;28;20025;-72
2022/08/25 09:57:47;;;;;;;15.35;3.53;;;33.00;41.80;;;;;;4957622;28;20573;-72
2022/08/25 10:00:18;;;;;;;6.03;2.58;;;32.90;41.10;;;;;;4977811;28;20057;-72
2022/08/25 10:02:59;;;;;;;6.28;2.40;;;33.00;48.40;;;;;;4977390;28;20018;-73
2022/08/25 10:05:26;;;;;;;8.07;2.83;;;33.10;43.60;;;;;;4974519;28;20026;-71
2022/08/25 10:07:58;;;;;;;7.10;2.88;;;33.30;39.90;;;;;;4974449;28;20045;-72
2022/08/25 10:10:36;;;;;;;5.10;2.60;;;33.20;40.00;;;;;;4977606;28;20038;-71
2022/08/25 10:13:11;;;;;;;7.20;2.35;;;33.30;40.50;;;;;;4976482;28;20058;-73
2022/08/25 10:15:37;;;;;;;14.70;3.20;;;33.40;42.10;;;;;;4975290;28;20045;-72
2022/08/25 10:18:35;;;;;;;4.22;2.13;;;33.60;39.10;;;;;;4977961;28;20031;-72
2022/08/25 10:21:16;;;;;;;9.13;2.60;;;33.70;46.90;;;;;;4933791;28;20151;-72
2022/08/25 10:23:48;;;;;;;10.90;2.63;;;33.90;41.30;;;;;;4977786;28;20489;-71
2022/08/25 10:26:29;;;;;;;6.85;2.50;;;34.00;40.10;;;;;;4978041;28;20053;-71
2022/08/25 10:28:54;;;;;;;3.97;2.10;;;34.10;40.10;;;;;;4962328;28;20050;-73
2022/08/25 10:31:35;;;;;;;7.18;3.00;;;34.10;43.20;;;;;;4960859;28;20047;-73
2022/08/25 10:34:20;;;;;;;6.22;2.25;;;34.10;38.00;;;;;;4979448;28;20073;-73
2022/08/25 10:37:01;;;;;;;9.95;3.50;;;34.20;38.40;;;;;;4980269;28;20474;-75
2022/08/25 10:39:53;;;;;;;6.70;3.10;;;34.30;39.10;;;;;;4976866;28;20031;-75
2022/08/25 10:42:41;;;;;;;9.63;3.38;;;34.50;37.80;;;;;;4977864;28;20038;-75
2022/08/25 10:48:11;;;;;;;7.53;2.53;;;34.70;37.10;;;;;;4976091;28;20052;-74
2022/08/25 10:50:59;;;;;;;4.15;2.20;;;34.90;36.70;;;;;;4964680;28;20030;-74
2022/08/25 10:53:43;;;;;;;7.30;2.67;;;34.90;39.70;;;;;;4975288;28;20029;-73
2022/08/25 10:56:44;;;;;;;4.32;2.08;;;35.00;35.40;;;;;;4979015;28;20029;-75
2022/08/25 10:59:41;;;;;;;3.55;1.85;;;34.90;36.30;;;;;;4938455;28;20042;-74
2022/08/25 11:02:32;;;;;;;6.90;2.63;;;34.90;37.60;;;;;;4974935;28;20900;-73
2022/08/25 11:05:19;;;;;;;5.20;2.72;;;34.80;35.10;;;;;;4976786;28;20051;-74
2022/08/25 11:07:48;;;;;;;7.28;2.85;;;35.00;36.80;;;;;;4980971;28;20045;-74
2022/08/25 11:10:24;;;;;;;5.68;1.90;;;35.20;34.60;;;;;;4975576;28;20015;-74
2022/08/25 11:12:58;;;;;;;5.18;1.90;;;35.40;33.70;;;;;;4979326;28;20026;-75
2022/08/25 11:15:28;;;;;;;5.72;2.15;;;35.40;41.30;;;;;;4980977;28;20027;-73
2022/08/25 11:17:56;;;;;;;3.67;1.77;;;35.50;33.40;;;;;;4977058;28;20429;-72
2022/08/25 11:20:27;;;;;;;6.38;2.08;;;35.60;40.40;;;;;;4974983;28;20034;-72
2022/08/25 11:23:07;;;;;;;6.63;2.35;;;35.60;34.00;;;;;;4975977;28;20033;-74
2022/08/25 11:25:39;;;;;;;5.65;2.70;;;35.60;33.90;;;;;;4976756;28;20022;-73
2022/08/25 11:28:11;;;;;;;4.88;2.22;;;35.60;32.80;;;;;;4971770;28;20034;-73
2022/08/25 11:30:38;;;;;;;4.40;1.88;;;35.70;33.70;;;;;;4979712;28;20039;-74
2022/08/25 11:33:04;;;;;;;5.80;2.15;;;35.90;36.10;;;;;;4976736;28;20023;-73
2022/08/25 11:35:38;;;;;;;8.48;2.30;;;36.10;35.40;;;;;;4975241;28;20023;-73
2022/08/25 11:38:34;;;;;;;4.50;2.28;;;36.30;33.90;;;;;;4975312;28;20397;-73
2022/08/25 11:41:21;;;;;;;3.38;1.60;;;36.30;38.30;;;;;;4978868;28;20038;-73
2022/08/25 11:44:07;;;;;;;8.70;2.65;;;36.40;41.80;;;;;;4977941;28;20088;-74
2022/08/25 11:46:44;;;;;;;4.05;1.65;;;36.50;34.90;;;;;;4978016;28;20047;-74
2022/08/25 11:49:38;;;;;;;3.15;1.50;;;36.60;39.80;;;;;;4970574;28;20050;-74
2022/08/25 11:52:32;;;;;;;3.42;1.90;;;36.60;44.30;;;;;;4977784;28;20030;-72
2022/08/25 11:55:28;;;;;;;3.78;1.65;;;36.60;35.40;;;;;;4971918;28;20432;-73
2022/08/25 11:58:29;;;;;;;3.35;1.90;;;36.70;43.10;;;;;;4972351;28;20069;-74
2022/08/25 12:00:57;;;;;;;3.65;1.70;;;36.80;37.20;;;;;;4979913;28;20026;-74
2022/08/25 12:03:35;;;;;;;3.63;1.90;;;36.90;35.50;;;;;;4965946;28;20038;-74
2022/08/25 12:06:22;;;;;;;6.13;2.33;;;36.90;34.50;;;;;;4973014;28;20035;-75
2022/08/25 12:08:59;;;;;;;3.65;1.80;;;36.80;34.60;;;;;;4976450;28;20043;-74
2022/08/25 12:11:38;;;;;;;3.85;1.65;;;36.60;36.90;;;;;;4961270;28;20069;-74
2022/08/25 12:14:35;;;;;;;6.47;2.20;;;36.60;39.90;;;;;;4978749;28;20019;-74
2022/08/25 12:17:35;;;;;;;4.82;2.33;;;36.80;38.40;;;;;;4970839;28;20281;-74
2022/08/25 12:20:01;;;;;;;7.07;2.47;;;37.10;33.30;;;;;;4982229;28;20185;-74
2022/08/25 12:22:32;;;;;;;5.50;2.30;;;37.30;31.80;;;;;;4987676;28;20129;-74
2022/08/25 12:25:07;;;;;;;3.53;1.80;;;37.50;36.30;;;;;;4978050;28;20105;-74
2022/08/25 12:27:40;;;;;;;3.65;2.22;;;37.60;34.10;;;;;;4977794;28;20045;-74
2022/08/25 12:30:21;;;;;;;3.78;1.70;;;37.60;32.80;;;;;;4962814;28;20023;-74
2022/08/25 12:32:52;;;;;;;5.18;1.92;;;37.70;33.50;;;;;;4975999;28;20022;-73
2022/08/25 12:35:31;;;;;;;3.83;1.65;;;37.80;39.90;;;;;;4979211;28;20486;-73
2022/08/25 12:38:09;;;;;;;3.65;1.70;;;37.60;44.90;;;;;;4977314;28;20366;-73
2022/08/25 12:40:53;;;;;;;3.28;1.63;;;37.50;39.80;;;;;;4976891;28;20535;-73
2022/08/25 12:43:18;;;;;;;7.28;1.98;;;37.50;47.30;;;;;;4977445;28;20026;-74
2022/08/25 12:45:47;;;;;;;6.20;1.70;;;37.60;34.30;;;;;;4977033;28;20041;-75
2022/08/25 12:48:29;;;;;;;4.95;1.80;;;37.70;31.60;;;;;;4976265;28;20054;-74
2022/08/25 12:51:06;;;;;;;4.65;2.10;;;37.80;30.70;;;;;;4980635;28;20023;-75
2022/08/25 12:53:47;;;;;;;3.63;1.88;;;37.80;31.90;;;;;;4980990;28;20036;-75
2022/08/25 12:56:34;;;;;;;5.25;1.98;;;37.60;32.20;;;;;;4981493;28;20129;-74
2022/08/25 12:59:20;;;;;;;2.47;1.55;;;37.60;34.10;;;;;;4979754;28;20100;-73
2022/08/25 13:02:04;;;;;;;3.95;1.85;;;37.50;41.00;;;;;;4980703;28;20027;-75
2022/08/25 13:04:58;;;;;;;5.40;1.98;;;37.30;34.60;;;;;;4959419;28;20031;-75
2022/08/25 13:07:54;;;;;;;5.22;1.50;;;37.20;32.30;;;;;;4983012;28;20094;-73
2022/08/25 13:10:51;;;;;;;6.32;2.10;;;37.10;38.50;;;;;;4979692;28;20035;-74
2022/08/25 13:13:47;;;;;;;4.85;2.05;;;36.90;32.60;;;;;;4980542;28;20030;-73
2022/08/25 13:16:22;;;;;;;4.35;2.17;;;36.50;32.20;;;;;;4976052;28;20023;-73
2022/08/25 13:18:48;;;;;;;2.88;1.67;;;36.50;33.60;;;;;;4978699;28;20054;-72
2022/08/25 13:21:26;;;;;;;3.58;1.70;;;36.70;33.80;;;;;;4977236;28;20046;-72